createdAt,value
2017-11-24T00:02:11.727Z,34.70
2017-11-24T00:04:38.179Z,34.50
2017-11-24T00:07:04.625Z,34.03
2017-11-24T00:09:30.952Z,35.70
2017-11-24T00:11:57.511Z,34.90
2017-11-24T00:14:23.918Z,37.57
2017-11-24T00:16:50.431Z,34.10
2017-11-24T00:19:16.891Z,35.33
2017-11-24T00:21:43.255Z,35.73
2017-11-24T00:24:09.772Z,36.07
2017-11-24T00:26:36.091Z,34.97
2017-11-24T00:29:03.346Z,35.70
2017-11-24T00:31:29.789Z,35.70
2017-11-24T00:33:56.151Z,36.07
2017-11-24T00:36:22.663Z,35.33
2017-11-24T00:38:49.191Z,34.73
2017-11-24T00:41:15.634Z,33.53
2017-11-24T00:43:42.060Z,34.03
2017-11-24T00:46:09.219Z,32.97
2017-11-24T00:48:35.643Z,34.07
2017-11-24T00:51:02.077Z,34.60
2017-11-24T00:53:28.511Z,32.30
2017-11-24T00:55:55.053Z,32.20
2017-11-24T00:58:21.483Z,35.20
2017-11-24T01:00:47.919Z,33.83
2017-11-24T01:03:15.078Z,32.90
2017-11-24T01:05:41.440Z,32.00
2017-11-24T01:08:07.859Z,33.27
2017-11-24T01:10:34.279Z,33.60
2017-11-24T01:13:00.671Z,33.70
2017-11-24T01:15:27.113Z,33.03
2017-11-24T01:17:53.602Z,32.70
2017-11-24T01:20:20.728Z,34.30
2017-11-24T01:22:47.322Z,32.47
2017-11-24T01:25:13.698Z,31.60
2017-11-24T01:27:40.133Z,33.43
2017-11-24T01:30:06.570Z,31.90
2017-11-24T01:32:32.935Z,33.10
2017-11-24T01:34:59.266Z,32.70
2017-11-24T01:37:26.487Z,32.03
2017-11-24T01:39:52.921Z,30.70
2017-11-24T01:42:19.355Z,32.80
2017-11-24T01:44:45.789Z,30.63
2017-11-24T01:47:12.122Z,30.53
2017-11-24T01:49:38.662Z,30.20
2017-11-24T01:52:05.094Z,35.47
2017-11-24T01:54:32.375Z,34.37
2017-11-24T01:56:58.989Z,33.97
2017-11-24T01:59:25.430Z,34.27
2017-11-24T02:01:51.966Z,34.63
2017-11-24T02:04:18.326Z,33.07
2017-11-24T02:06:44.836Z,32.03
2017-11-24T02:09:11.210Z,29.50
2017-11-24T02:11:38.434Z,30.90
2017-11-24T02:14:04.849Z,31.97
2017-11-24T02:16:31.213Z,27.87
2017-11-24T02:18:57.614Z,28.80
2017-11-24T02:21:23.949Z,27.97
2017-11-24T02:23:50.389Z,27.40
2017-11-24T02:26:16.807Z,27.60
2017-11-24T02:28:43.884Z,26.30
2017-11-24T02:31:10.407Z,25.90
2017-11-24T02:33:36.807Z,27.40
2017-11-24T02:36:03.274Z,27.00
2017-11-24T02:38:29.718Z,25.37
2017-11-24T02:40:56.141Z,26.83
2017-11-24T02:43:22.686Z,27.17
2017-11-24T02:45:49.727Z,26.23
2017-11-24T02:48:16.171Z,25.83
2017-11-24T02:50:42.636Z,26.33
2017-11-24T02:53:09.035Z,28.50
2017-11-24T02:55:35.466Z,29.13
2017-11-24T02:58:01.903Z,28.00
2017-11-24T03:00:28.958Z,28.60
2017-11-24T03:02:55.493Z,25.50
2017-11-24T03:05:21.921Z,27.27
2017-11-24T03:07:48.357Z,25.30
2017-11-24T03:10:14.810Z,23.90
2017-11-24T03:12:41.218Z,24.03
2017-11-24T03:15:07.668Z,23.83
2017-11-24T03:17:34.102Z,25.57
2017-11-24T03:20:01.246Z,24.80
2017-11-24T03:22:27.708Z,25.63
2017-11-24T03:24:54.124Z,25.77
2017-11-24T03:27:20.550Z,25.67
2017-11-24T03:29:47.013Z,26.40
2017-11-24T03:32:13.424Z,29.03
2017-11-24T03:34:39.875Z,26.57
2017-11-24T03:37:07.014Z,26.67
2017-11-24T03:39:33.452Z,25.93
2017-11-24T03:41:59.881Z,25.67
2017-11-24T03:44:26.308Z,25.53
2017-11-24T03:46:52.753Z,24.37
2017-11-24T03:49:19.109Z,25.10
2017-11-24T03:51:45.516Z,25.77
2017-11-24T03:54:12.662Z,24.57
2017-11-24T03:56:39.098Z,25.23
2017-11-24T03:59:05.533Z,39.07
2017-11-24T04:01:31.985Z,39.87
2017-11-24T04:03:58.411Z,31.43
2017-11-24T04:06:24.845Z,30.50
2017-11-24T04:08:51.272Z,30.70
2017-11-24T04:11:18.421Z,31.63
2017-11-24T04:13:44.875Z,31.83
2017-11-24T04:16:11.216Z,33.53
2017-11-24T04:18:37.623Z,33.80
2017-11-24T04:21:04.057Z,33.97
2017-11-24T04:23:30.493Z,34.13
2017-11-24T04:25:56.935Z,32.80
2017-11-24T04:28:24.086Z,32.93
2017-11-24T04:30:50.512Z,37.30
2017-11-24T04:33:16.947Z,32.60
2017-11-24T04:35:43.382Z,33.57
2017-11-24T04:38:09.825Z,31.57
2017-11-24T04:40:36.251Z,35.47
2017-11-24T04:43:02.689Z,34.93
2017-11-24T04:45:29.849Z,35.43
2017-11-24T04:47:56.273Z,35.70
2017-11-24T04:50:22.716Z,37.20
2017-11-24T04:52:49.150Z,39.30
2017-11-24T04:55:15.543Z,36.50
2017-11-24T04:57:41.909Z,40.30
2017-11-24T05:00:08.442Z,39.57
2017-11-24T05:02:35.572Z,37.80
2017-11-24T05:05:01.930Z,37.47
2017-11-24T05:07:28.318Z,31.30
2017-11-24T05:09:54.806Z,27.03
2017-11-24T05:12:21.195Z,28.10
2017-11-24T05:14:47.667Z,30.10
2017-11-24T05:17:14.108Z,29.43
2017-11-24T05:19:41.287Z,29.13
2017-11-24T05:22:07.700Z,29.13
2017-11-24T05:24:34.122Z,29.60
2017-11-24T05:27:00.490Z,29.70
2017-11-24T05:29:26.892Z,32.10
2017-11-24T05:31:53.333Z,41.47
2017-11-24T05:34:19.762Z,36.37
2017-11-24T05:36:46.920Z,34.67
2017-11-24T05:39:13.346Z,41.33
2017-11-24T05:41:39.789Z,38.27
2017-11-24T05:44:06.219Z,39.30
2017-11-24T05:46:32.650Z,33.83
2017-11-24T05:48:58.982Z,32.20
2017-11-24T05:51:25.416Z,35.40
2017-11-24T05:53:52.506Z,32.27
2017-11-24T05:56:18.903Z,30.90
2017-11-24T05:58:45.337Z,32.77
2017-11-24T06:01:11.779Z,97.37
2017-11-24T06:03:38.206Z,66.20
2017-11-24T06:06:04.851Z,42.07
2017-11-24T06:08:31.211Z,35.50
2017-11-24T06:10:57.705Z,36.17
2017-11-24T06:13:24.150Z,34.07
2017-11-24T06:15:50.589Z,34.50
2017-11-24T06:18:17.955Z,35.37
2017-11-24T06:20:44.482Z,35.10
2017-11-24T06:23:10.909Z,35.77
2017-11-24T06:25:37.616Z,36.87
2017-11-24T06:28:04.079Z,39.10
2017-11-24T06:30:30.519Z,118.30
2017-11-24T06:32:57.027Z,121.07
2017-11-24T06:35:23.388Z,71.20
2017-11-24T06:37:49.928Z,64.47
2017-11-24T06:40:16.676Z,63.00
2017-11-24T06:42:43.111Z,61.20
2017-11-24T06:45:09.796Z,89.10
2017-11-24T06:47:36.905Z,56.23
2017-11-24T06:50:03.807Z,51.73
2017-11-24T06:52:30.389Z,78.97
2017-11-24T06:54:57.333Z,80.90
2017-11-24T06:57:23.760Z,141.37
2017-11-24T06:59:50.297Z,277.13
2017-11-24T07:02:16.730Z,80.93
2017-11-24T07:04:43.472Z,57.10
2017-11-24T07:12:13.221Z,39.63
2017-11-24T07:14:39.657Z,38.63
2017-11-24T07:17:06.090Z,42.97
2017-11-24T07:22:04.098Z,45.70
2017-11-24T07:24:30.513Z,48.13
2017-11-24T07:26:58.159Z,46.47
2017-11-24T07:29:25.033Z,43.50
2017-11-24T07:31:51.568Z,43.00
2017-11-24T07:34:18.087Z,43.43
2017-11-24T07:36:44.639Z,46.30
2017-11-24T07:39:11.003Z,47.57
2017-11-24T07:41:37.718Z,49.00
2017-11-24T07:54:10.256Z,38.80
2017-11-24T07:56:36.695Z,36.30
2017-11-24T07:59:03.124Z,36.47
2017-11-24T08:01:30.002Z,35.57
2017-11-24T08:03:56.931Z,35.33
2017-11-24T08:06:23.556Z,34.50
2017-11-24T08:08:50.487Z,34.67
2017-11-24T08:11:17.053Z,36.60
2017-11-24T08:13:43.857Z,36.73
2017-11-24T08:16:10.843Z,39.40
2017-11-24T08:18:37.573Z,36.43
2017-11-24T08:21:04.117Z,35.53
2017-11-24T08:23:30.916Z,39.50
2017-11-24T08:25:57.601Z,39.57
2017-11-24T08:28:24.272Z,30.80
2017-11-24T08:30:51.140Z,29.60
2017-11-24T08:33:17.589Z,25.70
2017-11-24T08:35:44.254Z,37.40
2017-11-24T08:38:11.097Z,41.47
2017-11-24T08:40:37.567Z,39.60
2017-11-24T08:43:04.075Z,39.10
2017-11-24T08:45:30.614Z,32.80
2017-11-24T08:47:57.705Z,31.93
2017-11-24T08:50:24.195Z,30.63
2017-11-24T08:52:50.730Z,32.00
2017-11-24T08:55:17.575Z,35.67
2017-11-24T08:57:44.111Z,46.33
2017-11-24T09:00:10.515Z,81.83
2017-11-24T09:02:37.390Z,42.43
2017-11-24T09:05:03.926Z,31.57
2017-11-24T09:07:30.362Z,27.03
2017-11-24T09:09:57.000Z,29.90
2017-11-24T09:12:23.443Z,30.10
2017-11-24T09:14:49.972Z,28.63
2017-11-24T09:17:17.173Z,32.20
2017-11-24T09:19:43.558Z,32.33
2017-11-24T09:22:10.000Z,28.73
2017-11-24T09:24:36.522Z,29.83
2017-11-24T09:27:03.484Z,27.80
2017-11-24T09:29:29.879Z,28.33
2017-11-24T09:31:56.278Z,28.63
2017-11-24T09:34:22.892Z,28.43
2017-11-24T10:05:42.673Z,25.47
2017-11-24T10:08:09.110Z,25.70
2017-11-24T10:10:35.541Z,28.00
2017-11-24T10:13:02.455Z,30.53
2017-11-24T10:15:28.875Z,28.73
2017-11-24T10:17:56.391Z,28.77
2017-11-24T10:20:23.625Z,29.37
2017-11-24T10:29:54.322Z,27.37
2017-11-24T10:32:20.863Z,26.57
2017-11-24T10:34:47.705Z,24.30
2017-11-24T10:37:14.444Z,25.40
2017-11-24T10:39:40.879Z,24.13
2017-11-24T10:42:07.586Z,25.53
2017-11-24T10:44:34.984Z,21.40
2017-11-24T10:47:02.074Z,21.57
2017-11-24T10:49:28.562Z,19.23
2017-11-24T10:51:55.898Z,19.37
2017-11-24T10:56:53.624Z,18.40
2017-11-24T10:59:20.525Z,20.77
2017-11-24T11:01:47.086Z,19.40
2017-11-24T11:04:13.628Z,18.00
2017-11-24T11:06:40.742Z,17.33
2017-11-24T11:09:07.412Z,16.83
2017-11-24T11:11:33.887Z,17.50
2017-11-24T11:14:00.592Z,17.40
2017-11-24T11:16:27.411Z,15.30
2017-11-24T11:18:53.981Z,15.83
2017-11-24T11:21:20.303Z,15.90
2017-11-24T11:23:46.914Z,15.20
2017-11-24T11:26:13.318Z,14.80
2017-11-24T11:28:39.729Z,15.20
2017-11-24T11:31:06.455Z,14.90
2017-11-24T11:33:33.001Z,14.80
2017-11-24T11:35:59.425Z,14.20
2017-11-24T11:38:26.336Z,15.00
2017-11-24T11:40:52.771Z,14.87
2017-11-24T11:43:19.241Z,15.97
2017-11-24T11:45:46.817Z,16.27
2017-11-24T11:54:15.565Z,14.23
2017-11-24T11:56:41.969Z,15.17
2017-11-24T11:59:08.356Z,15.27
2017-11-24T12:01:34.841Z,14.03
2017-11-24T12:09:19.277Z,17.80
2017-11-24T12:11:45.775Z,16.60
2017-11-24T12:14:12.445Z,17.07
2017-11-24T12:16:38.907Z,16.43
2017-11-24T12:23:38.266Z,15.97
2017-11-24T12:26:05.746Z,17.10
2017-11-24T12:32:53.759Z,16.67
2017-11-24T12:35:20.141Z,17.33
2017-11-24T12:37:46.583Z,17.60
2017-11-24T12:42:48.753Z,19.90
2017-11-24T12:45:15.229Z,19.20
2017-11-24T12:58:28.920Z,20.17
2017-11-24T13:00:55.459Z,20.20
2017-11-24T13:11:08.592Z,19.03
2017-11-24T13:13:35.077Z,21.50
2017-11-24T13:16:02.024Z,20.73
2017-11-24T13:21:59.920Z,21.93
2017-11-24T13:24:26.510Z,19.30
2017-11-24T13:26:52.974Z,18.20
2017-11-24T13:29:19.949Z,20.13
2017-11-24T13:31:46.461Z,19.17
2017-11-24T13:34:13.352Z,19.27
2017-11-24T13:36:39.752Z,18.10
2017-11-24T13:39:06.192Z,20.67
2017-11-24T13:41:33.233Z,19.60
2017-11-24T13:43:59.871Z,18.87
2017-11-24T13:46:26.303Z,20.53
2017-11-24T13:48:52.738Z,21.40
2017-11-24T13:51:19.071Z,20.27
2017-11-24T13:53:45.813Z,20.80
2017-11-24T13:56:12.189Z,21.27
2017-11-24T13:58:38.580Z,20.00
2017-11-24T14:01:05.032Z,20.83
2017-11-24T14:03:31.590Z,20.73
2017-11-24T14:05:58.783Z,22.23
2017-11-24T14:08:26.200Z,22.17
2017-11-24T14:10:53.365Z,21.00
2017-11-24T14:13:19.970Z,22.33
2017-11-24T14:15:46.388Z,29.40
2017-11-24T14:18:13.034Z,42.53
2017-11-24T14:20:39.461Z,37.50
2017-11-24T14:23:05.910Z,23.47
2017-11-24T14:25:32.331Z,23.33
2017-11-24T14:27:59.210Z,22.00
2017-11-24T14:30:25.608Z,23.93
2017-11-24T14:32:51.941Z,24.07
2017-11-24T14:35:18.410Z,24.00
2017-11-24T14:37:44.757Z,21.67
2017-11-24T14:40:11.260Z,22.47
2017-11-24T14:42:37.682Z,27.30
2017-11-24T14:45:04.227Z,22.87
2017-11-24T14:47:30.652Z,23.73
2017-11-24T14:49:56.984Z,23.53
2017-11-24T14:52:23.486Z,24.70
2017-11-24T14:54:50.672Z,30.87
2017-11-24T14:57:17.135Z,33.67
2017-11-24T14:59:43.913Z,37.73
2017-11-24T15:02:10.395Z,39.37
2017-11-24T15:04:36.934Z,41.10
2017-11-24T15:07:03.291Z,39.63
2017-11-24T15:09:29.800Z,38.80
2017-11-24T15:11:56.330Z,38.50
2017-11-24T15:14:22.876Z,40.70
2017-11-24T15:16:49.267Z,40.10
2017-11-24T15:19:15.736Z,39.73
2017-11-24T15:21:42.376Z,41.40
2017-11-24T15:24:08.913Z,39.77
2017-11-24T15:26:35.278Z,38.03
2017-11-24T15:29:01.710Z,38.30
2017-11-24T15:31:28.558Z,38.40
2017-11-24T15:33:54.990Z,37.20
2017-11-24T15:36:21.418Z,39.87
2017-11-24T15:38:47.941Z,38.47
2017-11-24T15:41:14.365Z,37.70
2017-11-24T15:43:40.903Z,40.50
2017-11-24T15:46:07.267Z,40.93
2017-11-24T15:48:33.779Z,42.10
2017-11-24T15:56:03.430Z,42.97
2017-11-24T15:58:30.075Z,41.00
2017-11-24T16:00:57.117Z,38.80
2017-11-24T16:05:55.629Z,38.73
2017-11-24T16:08:22.138Z,42.17
2017-11-24T16:10:48.671Z,38.20
2017-11-24T16:13:15.214Z,42.10
2017-11-24T16:35:53.494Z,41.83
2017-11-24T16:38:19.930Z,40.23
2017-11-24T16:40:46.358Z,41.47
2017-11-24T16:43:14.020Z,39.33
2017-11-24T16:45:40.453Z,39.87
2017-11-24T16:48:06.886Z,42.33
2017-11-24T16:50:33.256Z,41.73
2017-11-24T16:52:59.654Z,43.10
2017-11-24T16:55:26.034Z,45.03
2017-11-24T16:57:52.551Z,42.90
2017-11-24T17:00:18.958Z,44.87
2017-11-24T17:02:45.429Z,46.33
2017-11-24T17:05:12.016Z,47.00
2017-11-24T17:07:38.490Z,43.27
2017-11-24T17:10:05.012Z,50.03
2017-11-24T17:12:31.448Z,50.90
2017-11-24T17:14:57.885Z,51.83
2017-11-24T17:17:24.308Z,53.53
2017-11-24T17:19:50.747Z,52.93
2017-11-24T17:22:17.862Z,55.20
2017-11-24T17:24:44.439Z,62.80
2017-11-24T17:27:10.876Z,70.20
2017-11-24T17:29:37.300Z,71.20
2017-11-24T17:32:03.716Z,78.97
2017-11-24T17:34:30.189Z,70.47
2017-11-24T17:36:56.603Z,78.80
2017-11-24T17:39:23.789Z,70.47
2017-11-24T17:41:50.190Z,72.33
2017-11-24T17:44:16.633Z,69.70
2017-11-24T17:46:43.059Z,70.00
2017-11-24T17:49:09.504Z,69.30
2017-11-24T17:51:35.937Z,66.47
2017-11-24T17:54:02.295Z,69.27
2017-11-24T17:56:29.617Z,68.13
2017-11-24T17:58:56.060Z,67.70
2017-11-24T18:01:22.495Z,64.10
2017-11-24T18:03:48.928Z,66.07
2017-11-24T18:06:15.364Z,65.20
2017-11-24T18:08:41.790Z,66.70
2017-11-24T18:11:08.225Z,71.40
2017-11-24T18:13:35.376Z,69.70
2017-11-24T18:16:01.812Z,72.67
2017-11-24T18:18:28.245Z,78.67
2017-11-24T18:20:54.689Z,68.47
2017-11-24T18:23:21.133Z,75.30
2017-11-24T18:25:47.661Z,69.83
2017-11-24T18:28:14.086Z,71.47
2017-11-24T18:30:41.238Z,67.20
2017-11-24T18:33:07.673Z,72.67
2017-11-24T18:35:34.107Z,66.20
2017-11-24T18:38:00.423Z,67.70
2017-11-24T18:40:26.984Z,71.90
2017-11-24T18:42:53.411Z,66.70
2017-11-24T18:45:19.816Z,58.93
2017-11-24T18:47:46.986Z,62.43
2017-11-24T18:50:13.366Z,68.77
2017-11-24T18:52:39.976Z,63.60
2017-11-24T18:55:06.303Z,65.43
2017-11-24T18:57:32.739Z,69.13
2017-11-24T18:59:59.284Z,64.60
2017-11-24T19:02:25.708Z,65.87
2017-11-24T19:04:52.961Z,62.50
2017-11-24T19:07:19.397Z,56.50
2017-11-24T19:09:45.806Z,52.97
2017-11-24T19:12:12.275Z,57.10
2017-11-24T19:14:38.727Z,58.43
2017-11-24T19:17:05.137Z,55.87
2017-11-24T19:19:31.598Z,55.20
2017-11-24T19:21:58.619Z,57.70
2017-11-24T19:24:24.950Z,52.43
2017-11-24T19:26:51.281Z,51.10
2017-11-24T19:29:17.717Z,49.30
2017-11-24T19:31:44.159Z,45.13
2017-11-24T19:34:10.599Z,44.50
2017-11-24T19:36:36.996Z,42.70
2017-11-24T19:39:04.245Z,38.07
2017-11-24T19:41:30.718Z,44.00
2017-11-24T19:43:57.143Z,39.30
2017-11-24T19:46:23.476Z,43.63
2017-11-24T19:48:49.919Z,44.63
2017-11-24T19:51:16.344Z,46.20
2017-11-24T19:53:42.779Z,45.00
2017-11-24T19:56:09.932Z,44.70
2017-11-24T19:58:36.300Z,46.53
2017-11-24T20:01:02.775Z,46.27
2017-11-24T20:03:29.245Z,42.07
2017-11-24T20:05:55.670Z,40.77
2017-11-24T20:08:22.114Z,46.00
2017-11-24T20:10:48.436Z,41.43
2017-11-24T20:13:15.691Z,43.03
2017-11-24T20:15:42.133Z,39.37
2017-11-24T20:18:08.559Z,38.30
2017-11-24T20:20:34.927Z,40.13
2017-11-24T20:23:01.327Z,38.07
2017-11-24T20:25:27.762Z,35.87
2017-11-24T20:27:54.196Z,37.13
2017-11-24T20:30:21.426Z,36.90
2017-11-24T20:32:47.870Z,36.20
2017-11-24T20:35:14.312Z,34.97
2017-11-24T20:37:40.755Z,30.83
2017-11-24T20:40:07.187Z,29.57
2017-11-24T20:42:33.587Z,31.97
2017-11-24T20:45:00.068Z,31.50
2017-11-24T20:47:27.218Z,33.10
2017-11-24T20:49:53.651Z,34.10
2017-11-24T20:52:20.007Z,31.63
2017-11-24T20:54:46.410Z,31.70
2017-11-24T20:57:12.844Z,32.47
2017-11-24T20:59:39.391Z,29.50
2017-11-24T21:02:05.756Z,29.57
2017-11-24T21:04:32.987Z,28.70
2017-11-24T21:06:59.536Z,25.00
2017-11-24T21:09:25.942Z,26.30
2017-11-24T21:11:52.382Z,26.37
2017-11-24T21:14:18.809Z,26.87
2017-11-24T21:16:45.246Z,24.87
2017-11-24T21:19:11.683Z,25.77
2017-11-24T21:21:38.842Z,25.60
2017-11-24T21:24:05.275Z,25.53
2017-11-24T21:26:31.701Z,27.30
2017-11-24T21:28:58.117Z,27.63
2017-11-24T21:31:24.453Z,26.67
2017-11-24T21:33:50.764Z,28.17
2017-11-24T21:36:17.232Z,25.63
2017-11-24T21:38:44.321Z,29.00
2017-11-24T21:41:10.717Z,28.27
2017-11-24T21:43:37.161Z,31.43
2017-11-24T21:46:03.586Z,28.30
2017-11-24T21:48:30.123Z,31.40
2017-11-24T21:50:56.455Z,30.97
2017-11-24T21:53:23.000Z,32.57
2017-11-24T21:55:50.041Z,38.73
2017-11-24T21:58:16.485Z,40.63
2017-11-24T22:00:43.014Z,41.00
2017-11-24T22:03:09.449Z,42.83
2017-11-24T22:05:35.883Z,40.63
2017-11-24T22:08:02.318Z,38.50
2017-11-24T22:10:28.751Z,38.70
2017-11-24T22:12:56.025Z,40.20
2017-11-24T22:15:22.440Z,39.17
2017-11-24T22:17:48.883Z,37.70
2017-11-24T22:20:15.310Z,34.93
2017-11-24T22:22:41.744Z,32.33
2017-11-24T22:25:08.116Z,31.37
2017-11-24T22:27:34.520Z,32.60
2017-11-24T22:30:01.743Z,31.73
2017-11-24T22:32:28.208Z,31.23
2017-11-24T22:34:54.643Z,30.33
2017-11-24T22:37:21.051Z,29.10
2017-11-24T22:39:47.400Z,28.83
2017-11-24T22:42:13.804Z,29.53
2017-11-24T22:44:40.270Z,31.87
2017-11-24T22:47:07.422Z,30.57
2017-11-24T22:49:33.798Z,31.40
2017-11-24T22:52:00.301Z,33.87
2017-11-24T22:54:26.724Z,34.07
2017-11-24T22:56:53.262Z,31.30
2017-11-24T22:59:19.698Z,31.90
2017-11-24T23:01:46.131Z,30.70
2017-11-24T23:04:13.283Z,28.77
2017-11-24T23:06:39.622Z,27.40
2017-11-24T23:09:06.057Z,29.40
2017-11-24T23:11:32.493Z,27.60
2017-11-24T23:13:58.921Z,24.60
2017-11-24T23:16:25.362Z,23.57
2017-11-24T23:18:51.797Z,24.10
2017-11-24T23:21:18.947Z,22.07
2017-11-24T23:23:45.383Z,23.70
2017-11-24T23:26:11.817Z,24.13
2017-11-24T23:28:38.242Z,25.27
2017-11-24T23:31:04.687Z,26.70
2017-11-24T23:33:31.113Z,25.30
2017-11-24T23:35:57.549Z,26.00
2017-11-24T23:38:24.597Z,24.90
2017-11-24T23:40:50.931Z,25.80
2017-11-24T23:43:17.391Z,27.83
2017-11-24T23:45:43.801Z,24.73
2017-11-24T23:48:10.233Z,26.73
2017-11-24T23:50:36.667Z,24.57
2017-11-24T23:53:03.104Z,23.10
2017-11-24T23:55:30.355Z,23.27
2017-11-24T23:57:56.799Z,23.93
